Time;durP1;ratioP1;P1;durP2;ratioP2;P2;SDS_P1;SDS_P2;PMS_P1;PMS_P2;Temp;Humidity;BMP_temperature;BMP_pressure;BME280_temperature;BME280_humidity;BME280_pressure;Samples;Min_cycle;Max_cycle;Signal;HPM_P1;HPM_P2
2024/01/03 00:00:44;;;;;;;18.20;11.20;;;;;;;3.98;100.00;98686.25;111420;239;41424;-61
2024/01/03 00:03:41;;;;;;;17.90;12.20;;;;;;;3.99;100.00;98685.06;111568;239;40271;-61
2024/01/03 00:06:20;;;;;;;20.10;12.10;;;;;;;4.00;100.00;98686.20;111569;239;39067;-61
2024/01/03 00:09:00;;;;;;;18.10;11.60;;;;;;;4.03;100.00;98681.07;111440;239;40722;-59
2024/01/03 00:11:37;;;;;;;17.80;12.30;;;;;;;4.02;100.00;98678.28;111620;239;40391;-62
2024/01/03 00:14:29;;;;;;;18.70;12.70;;;;;;;4.01;100.00;98673.66;111559;239;40062;-62
2024/01/03 00:17:07;;;;;;;17.40;13.00;;;;;;;3.98;100.00;98670.42;111521;239;39816;-58
2024/01/03 00:19:47;;;;;;;17.40;12.40;;;;;;;4.00;100.00;98669.98;111527;239;40178;-59
2024/01/03 00:22:28;;;;;;;21.50;13.00;;;;;;;4.02;100.00;98662.26;111515;239;39720;-58
2024/01/03 00:25:10;;;;;;;22.40;13.30;;;;;;;4.01;100.00;98651.54;111562;239;39305;-60
2024/01/03 00:27:48;;;;;;;16.90;12.00;;;;;;;4.04;100.00;98649.77;111549;239;40237;-60
2024/01/03 00:30:25;;;;;;;18.80;12.90;;;;;;;4.00;100.00;98645.66;111577;239;40001;-61
2024/01/03 00:33:03;;;;;;;18.80;12.70;;;;;;;3.99;100.00;98642.20;111271;241;39869;-60
2024/01/03 00:35:44;;;;;;;29.50;18.50;;;;;;;3.99;100.00;98631.54;111269;241;39588;-63
2024/01/03 00:38:25;;;;;;;21.30;13.40;;;;;;;4.00;100.00;98629.77;111317;241;40017;-63
2024/01/03 00:41:00;;;;;;;18.80;13.40;;;;;;;3.99;100.00;98626.13;111314;241;40402;-63
2024/01/03 00:43:41;;;;;;;20.60;12.70;;;;;;;3.93;100.00;98622.77;111364;240;38912;-62
2024/01/03 00:46:18;;;;;;;21.80;13.30;;;;;;;3.92;100.00;98619.77;111325;240;39336;-62
2024/01/03 00:48:56;;;;;;;19.70;13.30;;;;;;;3.93;100.00;98617.85;111391;240;39533;-62
2024/01/03 00:51:34;;;;;;;20.20;13.50;;;;;;;3.92;100.00;98615.49;111412;240;41128;-62
2024/01/03 00:54:11;;;;;;;21.50;13.00;;;;;;;3.92;100.00;98606.09;111367;240;39474;-62
2024/01/03 00:56:51;;;;;;;17.60;12.50;;;;;;;3.93;100.00;98601.27;111372;240;39261;-62
2024/01/03 00:59:32;;;;;;;17.90;12.80;;;;;;;3.84;100.00;98594.75;111382;240;39218;-61
2024/01/03 01:02:10;;;;;;;18.80;12.70;;;;;;;3.86;100.00;98589.92;111391;241;39817;-62
2024/01/03 01:04:48;;;;;;;16.90;12.10;;;;;;;3.85;100.00;98585.15;111381;240;39712;-56
2024/01/03 01:07:26;;;;;;;18.80;12.40;;;;;;;3.81;100.00;98576.31;111360;241;39316;-57
2024/01/03 01:10:04;;;;;;;17.20;13.00;;;;;;;3.84;100.00;98572.54;111306;240;40550;-57
2024/01/03 01:12:40;;;;;;;18.40;11.80;;;;;;;3.84;100.00;98568.42;111380;240;40347;-56
2024/01/03 01:15:17;;;;;;;21.20;12.50;;;;;;;3.88;100.00;98559.56;111367;240;39697;-56
2024/01/03 01:17:57;;;;;;;17.80;11.70;;;;;;;3.88;100.00;98556.66;111360;241;39186;-56
2024/01/03 01:20:35;;;;;;;17.90;11.80;;;;;;;3.86;100.00;98552.66;111352;240;40954;-59
2024/01/03 01:23:13;;;;;;;16.50;12.20;;;;;;;3.87;100.00;98547.77;111332;240;38920;-59
2024/01/03 01:25:50;;;;;;;15.20;11.00;;;;;;;3.85;100.00;98546.77;111346;240;39574;-56
2024/01/03 01:28:27;;;;;;;16.50;12.00;;;;;;;3.85;100.00;98537.82;111319;240;39461;-56
2024/01/03 01:31:05;;;;;;;18.50;12.20;;;;;;;3.85;100.00;98532.30;111377;239;39737;-57
2024/01/03 01:33:43;;;;;;;24.90;15.00;;;;;;;3.83;100.00;98527.20;111481;239;39033;-59
2024/01/03 01:36:19;;;;;;;17.90;12.20;;;;;;;3.84;100.00;98521.81;111501;239;40775;-56
2024/01/03 01:38:56;;;;;;;16.50;11.80;;;;;;;3.87;100.00;98518.66;111473;239;41004;-56
2024/01/03 01:41:33;;;;;;;16.20;11.60;;;;;;;3.85;100.00;98512.84;111519;239;38930;-59
2024/01/03 01:44:10;;;;;;;21.20;13.40;;;;;;;3.83;100.00;98511.62;111502;239;39272;-59
2024/01/03 01:46:46;;;;;;;17.80;12.60;;;;;;;3.84;100.00;98503.61;111504;239;39734;-56
2024/01/03 01:49:24;;;;;;;17.40;12.40;;;;;;;3.87;100.00;98503.61;111511;239;40882;-56
2024/01/03 01:52:04;;;;;;;16.80;12.40;;;;;;;3.88;100.00;98500.77;111491;239;39884;-59
2024/01/03 01:54:46;;;;;;;16.80;12.50;;;;;;;3.84;100.00;98495.20;111424;239;40791;-59
2024/01/03 01:57:25;;;;;;;20.90;14.80;;;;;;;3.87;100.00;98495.75;111489;239;40815;-59
2024/01/03 02:00:02;;;;;;;18.50;13.00;;;;;;;3.84;100.00;98491.17;111485;239;39962;-59
2024/01/03 02:02:40;;;;;;;18.50;12.40;;;;;;;3.87;100.00;98491.61;111517;239;39319;-59
2024/01/03 02:05:17;;;;;;;18.50;13.00;;;;;;;3.88;100.00;98485.65;111497;239;40679;-58
2024/01/03 02:07:55;;;;;;;18.00;13.80;;;;;;;3.89;100.00;98480.89;111462;239;39476;-58
2024/01/03 02:10:32;;;;;;;20.80;14.90;;;;;;;3.88;100.00;98475.27;111498;239;40838;-58
2024/01/03 02:13:06;;;;;;;17.50;13.10;;;;;;;3.87;100.00;98468.98;111506;239;39660;-58
2024/01/03 02:15:47;;;;;;;20.00;15.40;;;;;;;3.88;100.00;98463.55;111533;239;40832;-56
2024/01/03 02:18:22;;;;;;;18.60;14.60;;;;;;;3.92;100.00;98464.31;111483;239;41404;-55
2024/01/03 02:20:58;;;;;;;21.80;13.90;;;;;;;3.92;100.00;98458.98;111532;239;40032;-59
2024/01/03 02:23:37;;;;;;;17.10;12.30;;;;;;;3.91;100.00;98454.41;111453;239;39416;-60
2024/01/03 02:26:14;;;;;;;18.10;11.90;;;;;;;3.89;100.00;98453.31;111538;239;40666;-62
2024/01/03 02:29:00;;;;;;;20.00;12.70;;;;;;;3.92;100.00;98447.79;111502;239;40706;-62
2024/01/03 02:31:40;;;;;;;15.40;11.80;;;;;;;3.92;100.00;98444.35;111570;239;39206;-59
2024/01/03 02:34:16;;;;;;;15.50;11.50;;;;;;;3.94;100.00;98440.70;111513;239;39296;-57
2024/01/03 02:36:59;;;;;;;18.40;11.60;;;;;;;3.95;100.00;98441.36;111433;239;41751;-61
2024/01/03 02:39:38;;;;;;;17.10;11.80;;;;;;;3.95;100.00;98436.09;111483;239;39812;-62
2024/01/03 02:42:15;;;;;;;25.90;14.00;;;;;;;3.96;100.00;98433.85;111506;239;40968;-60
2024/01/03 02:44:52;;;;;;;15.20;11.50;;;;;;;4.00;100.00;98432.07;111507;239;39876;-59
2024/01/03 02:47:33;;;;;;;19.40;13.00;;;;;;;3.98;100.00;98428.96;111450;239;39906;-57
2024/01/03 02:50:11;;;;;;;15.60;11.60;;;;;;;4.01;100.00;98423.58;111499;239;41175;-61
2024/01/03 02:52:48;;;;;;;16.40;11.30;;;;;;;3.99;100.00;98418.50;111455;239;40016;-61
2024/01/03 02:55:26;;;;;;;16.10;11.50;;;;;;;4.02;100.00;98414.70;111479;239;39252;-58
2024/01/03 02:58:06;;;;;;;16.20;11.00;;;;;;;4.04;100.00;98411.26;111460;239;39682;-58
2024/01/03 03:00:43;;;;;;;13.70;10.60;;;;;;;4.00;100.00;98406.67;111517;239;39073;-63
2024/01/03 03:03:22;;;;;;;16.70;11.60;;;;;;;3.96;100.00;98402.13;111510;239;40348;-63
2024/01/03 03:05:58;;;;;;;14.90;10.60;;;;;;;3.97;100.00;98397.02;111517;239;40897;-63
2024/01/03 03:08:39;;;;;;;13.90;9.90;;;;;;;3.97;100.00;98391.16;111466;239;39265;-62
2024/01/03 03:11:15;;;;;;;14.50;10.20;;;;;;;3.93;100.00;98388.95;111522;239;39727;-59
2024/01/03 03:13:53;;;;;;;13.20;9.00;;;;;;;3.92;100.00;98389.20;111557;239;39964;-57
2024/01/03 03:16:31;;;;;;;13.80;9.80;;;;;;;3.88;100.00;98381.20;111589;239;39314;-58
2024/01/03 03:19:09;;;;;;;14.80;10.10;;;;;;;3.90;100.00;98376.73;111540;239;39703;-58
2024/01/03 03:21:45;;;;;;;12.00;8.50;;;;;;;3.91;100.00;98371.08;111573;239;39751;-62
2024/01/03 03:24:23;;;;;;;13.70;9.10;;;;;;;3.91;100.00;98371.15;111536;239;39298;-62
2024/01/03 03:27:01;;;;;;;12.50;9.90;;;;;;;3.90;100.00;98362.27;111480;239;39663;-61
2024/01/03 03:29:43;;;;;;;11.40;8.50;;;;;;;3.90;100.00;98358.08;111478;239;39822;-61
2024/01/03 03:32:19;;;;;;;13.30;8.90;;;;;;;3.89;100.00;98357.29;111459;239;39865;-60
2024/01/03 03:34:55;;;;;;;14.60;8.80;;;;;;;3.89;100.00;98352.28;111482;239;39081;-58
2024/01/03 03:37:32;;;;;;;12.70;8.50;;;;;;;3.89;100.00;98345.51;111465;239;38957;-57
2024/01/03 03:40:13;;;;;;;10.70;8.20;;;;;;;3.89;100.00;98342.91;111457;239;40597;-62
2024/01/03 03:42:50;;;;;;;10.80;8.10;;;;;;;3.87;100.00;98338.67;111451;239;40274;-61
2024/01/03 03:45:27;;;;;;;10.50;7.90;;;;;;;3.85;100.00;98336.81;111499;239;41012;-58
2024/01/03 03:48:04;;;;;;;10.50;7.70;;;;;;;3.86;100.00;98332.95;111463;239;41074;-57
2024/01/03 03:50:39;;;;;;;11.40;7.40;;;;;;;3.84;100.00;98330.35;111484;239;40369;-61
2024/01/03 03:53:14;;;;;;;12.20;8.00;;;;;;;3.82;100.00;98327.55;111530;239;39770;-60
2024/01/03 03:55:50;;;;;;;11.30;8.20;;;;;;;3.84;100.00;98320.37;111462;239;39270;-57
2024/01/03 03:58:25;;;;;;;10.60;7.70;;;;;;;3.87;100.00;98316.04;111529;239;39391;-56
2024/01/03 04:01:01;;;;;;;13.60;8.50;;;;;;;3.89;100.00;98313.90;111544;239;40036;-60
2024/01/03 04:03:40;;;;;;;10.80;8.30;;;;;;;3.90;100.00;98314.66;111557;239;40062;-59
2024/01/03 04:06:17;;;;;;;11.20;8.50;;;;;;;3.92;100.00;98305.99;111495;239;39362;-60
2024/01/03 04:08:56;;;;;;;10.30;7.20;;;;;;;3.94;100.00;98302.05;111567;239;40666;-59
2024/01/03 04:11:34;;;;;;;10.70;7.60;;;;;;;3.91;100.00;98300.59;111525;239;40612;-60
2024/01/03 04:14:12;;;;;;;11.70;8.50;;;;;;;3.85;100.00;98296.17;111499;239;39420;-61
2024/01/03 04:16:50;;;;;;;10.00;7.80;;;;;;;3.85;100.00;98292.44;111505;239;40243;-60
2024/01/03 04:19:31;;;;;;;12.10;9.00;;;;;;;3.79;100.00;98290.64;111471;239;40341;-60
2024/01/03 04:22:12;;;;;;;10.70;8.40;;;;;;;3.83;100.00;98287.34;111518;239;39196;-60
2024/01/03 04:24:49;;;;;;;10.60;7.50;;;;;;;3.88;100.00;98283.49;111464;239;39388;-57
2024/01/03 04:27:22;;;;;;;11.20;8.30;;;;;;;3.91;100.00;98284.09;111469;239;39863;-58
2024/01/03 04:29:57;;;;;;;12.90;8.50;;;;;;;3.93;100.00;98276.03;111486;239;39023;-58
2024/01/03 04:32:36;;;;;;;11.10;8.20;;;;;;;3.93;100.00;98274.88;111415;239;39613;-58
2024/01/03 04:35:16;;;;;;;13.20;9.00;;;;;;;3.91;100.00;98272.83;111462;239;41057;-56
2024/01/03 04:37:56;;;;;;;10.50;8.40;;;;;;;3.89;100.00;98269.50;111479;239;39829;-56
2024/01/03 04:40:33;;;;;;;11.70;7.90;;;;;;;3.92;100.00;98268.38;111477;239;39902;-60
2024/01/03 04:43:13;;;;;;;12.30;8.40;;;;;;;3.93;100.00;98268.31;111513;239;39582;-61
2024/01/03 04:45:53;;;;;;;9.80;7.40;;;;;;;3.98;100.00;98263.80;111549;239;39173;-61
2024/01/03 04:48:33;;;;;;;9.70;7.80;;;;;;;3.98;100.00;98258.88;111530;239;39204;-61
2024/01/03 04:51:15;;;;;;;10.30;8.70;;;;;;;4.00;100.00;98260.05;111538;239;39399;-64
2024/01/03 04:53:55;;;;;;;10.00;8.40;;;;;;;4.01;100.00;98256.17;111525;239;40262;-65
2024/01/03 04:56:35;;;;;;;12.20;9.10;;;;;;;4.04;100.00;98252.91;111549;239;39535;-61
2024/01/03 04:59:09;;;;;;;11.90;8.40;;;;;;;4.08;100.00;98251.18;111503;239;39567;-61
2024/01/03 05:01:47;;;;;;;10.90;8.60;;;;;;;4.09;100.00;98248.08;111524;239;39812;-64
2024/01/03 05:04:23;;;;;;;14.60;10.90;;;;;;;4.08;100.00;98246.14;111488;239;39623;-65
2024/01/03 05:07:02;;;;;;;11.20;8.40;;;;;;;4.09;100.00;98238.53;111496;239;39481;-65
2024/01/03 05:09:42;;;;;;;14.50;9.40;;;;;;;4.11;100.00;98239.49;111506;239;39613;-63
2024/01/03 05:12:18;;;;;;;11.50;7.90;;;;;;;4.13;100.00;98236.04;111454;239;40897;-61
2024/01/03 05:14:56;;;;;;;13.40;8.90;;;;;;;4.12;100.00;98233.88;111506;239;40128;-62
2024/01/03 05:17:34;;;;;;;10.40;8.30;;;;;;;4.10;100.00;98234.83;111472;239;39978;-61
2024/01/03 05:20:11;;;;;;;9.70;8.20;;;;;;;4.13;100.00;98229.42;111505;239;39397;-64
2024/01/03 05:22:47;;;;;;;10.10;7.60;;;;;;;4.13;100.00;98223.50;111482;239;39212;-63
2024/01/03 05:25:26;;;;;;;26.90;16.70;;;;;;;4.09;100.00;98221.40;111465;239;39577;-60
2024/01/03 05:28:04;;;;;;;28.70;18.20;;;;;;;4.07;100.00;98215.34;111517;239;39262;-60
2024/01/03 05:30:41;;;;;;;12.80;9.00;;;;;;;4.03;100.00;98216.90;111496;239;40242;-65
2024/01/03 05:33:19;;;;;;;9.60;7.80;;;;;;;4.02;100.00;98215.13;111549;239;39504;-65
2024/01/03 05:35:57;;;;;;;17.40;11.30;;;;;;;4.06;100.00;98214.60;111530;239;39714;-62
2024/01/03 05:38:38;;;;;;;13.90;9.70;;;;;;;4.08;100.00;98213.05;111531;239;39514;-62
2024/01/03 05:41:12;;;;;;;11.40;7.80;;;;;;;4.09;100.00;98208.86;111566;239;39594;-64
2024/01/03 05:43:52;;;;;;;10.80;7.60;;;;;;;4.12;100.00;98215.28;111480;240;39737;-64
2024/01/03 05:46:30;;;;;;;12.00;8.30;;;;;;;4.14;100.00;98210.46;111542;239;40686;-64
2024/01/03 05:49:09;;;;;;;14.20;10.70;;;;;;;4.15;100.00;98207.59;111492;239;39365;-64
2024/01/03 05:51:49;;;;;;;13.20;9.50;;;;;;;4.18;100.00;98208.83;111507;239;39426;-61
2024/01/03 05:54:27;;;;;;;23.90;15.50;;;;;;;4.18;100.00;98203.73;111448;239;40869;-60
2024/01/03 05:57:10;;;;;;;12.60;8.70;;;;;;;4.18;100.00;98207.31;111497;239;39082;-64
2024/01/03 05:59:48;;;;;;;11.60;7.80;;;;;;;4.17;100.00;98202.95;111460;239;39511;-64
2024/01/03 06:02:26;;;;;;;10.40;7.60;;;;;;;4.17;100.00;98207.31;111447;239;39483;-64
2024/01/03 06:05:02;;;;;;;9.80;7.60;;;;;;;4.17;100.00;98206.17;111480;239;39897;-66
2024/01/03 06:07:37;;;;;;;8.20;6.50;;;;;;;4.13;100.00;98205.54;111510;239;40924;-63
2024/01/03 06:10:12;;;;;;;14.10;10.00;;;;;;;4.14;100.00;98206.00;111496;239;39089;-59
2024/01/03 06:12:50;;;;;;;9.40;7.20;;;;;;;4.15;100.00;98202.70;111527;239;41061;-59
2024/01/03 06:15:28;;;;;;;8.00;6.60;;;;;;;4.13;100.00;98199.13;111547;239;40737;-60
2024/01/03 06:18:04;;;;;;;9.10;7.00;;;;;;;4.13;100.00;98194.89;111488;239;40396;-60
2024/01/03 06:20:41;;;;;;;7.80;6.10;;;;;;;4.15;100.00;98198.40;111560;239;40472;-65
2024/01/03 06:23:27;;;;;;;8.20;6.60;;;;;;;4.17;100.00;98196.13;111557;239;40345;-65
2024/01/03 06:26:06;;;;;;;8.90;6.60;;;;;;;4.18;100.00;98190.55;111567;239;40995;-65
2024/01/03 06:28:42;;;;;;;12.00;8.00;;;;;;;4.14;100.00;98192.23;111519;239;41391;-65
2024/01/03 06:31:23;;;;;;;9.80;7.30;;;;;;;4.17;100.00;98191.56;111497;239;40234;-60
2024/01/03 06:33:59;;;;;;;13.70;9.00;;;;;;;4.16;100.00;98186.55;111472;239;40960;-59
2024/01/03 06:36:38;;;;;;;12.70;8.30;;;;;;;4.16;100.00;98180.92;111463;239;39371;-63
2024/01/03 06:39:14;;;;;;;9.10;6.80;;;;;;;4.22;100.00;98179.70;111467;239;39819;-64
2024/01/03 06:41:50;;;;;;;8.40;6.20;;;;;;;4.24;100.00;98180.65;111481;239;39367;-59
2024/01/03 06:44:31;;;;;;;8.70;7.10;;;;;;;4.23;100.00;98176.34;111460;239;39945;-59
2024/01/03 06:47:11;;;;;;;11.90;8.20;;;;;;;4.25;100.00;98170.30;111452;239;40779;-63
2024/01/03 06:49:52;;;;;;;11.60;8.50;;;;;;;4.26;100.00;98166.88;111466;239;39885;-63
2024/01/03 06:52:27;;;;;;;9.40;7.00;;;;;;;4.29;100.00;98167.58;111473;239;40949;-64
2024/01/03 06:55:05;;;;;;;10.30;7.10;;;;;;;4.29;100.00;98168.08;111528;239;38847;-64
2024/01/03 06:57:42;;;;;;;10.00;7.30;;;;;;;4.33;100.00;98167.52;111480;239;40093;-64
2024/01/03 07:00:21;;;;;;;11.30;8.10;;;;;;;4.29;100.00;98163.19;111566;239;39517;-63
2024/01/03 07:03:01;;;;;;;7.70;6.20;;;;;;;4.32;100.00;98160.10;111550;239;39677;-62
2024/01/03 07:05:40;;;;;;;8.40;7.00;;;;;;;4.32;100.00;98161.22;111494;239;41182;-60
2024/01/03 07:08:19;;;;;;;8.00;6.20;;;;;;;4.29;100.00;98161.95;111523;239;39855;-62
2024/01/03 07:10:57;;;;;;;8.20;6.90;;;;;;;4.33;100.00;98161.78;111549;239;40220;-61
2024/01/03 07:13:32;;;;;;;8.10;7.00;;;;;;;4.37;100.00;98158.63;111482;239;39563;-62
2024/01/03 07:16:09;;;;;;;10.40;7.90;;;;;;;4.40;100.00;98155.88;111473;239;39993;-62
2024/01/03 07:18:45;;;;;;;8.80;7.20;;;;;;;4.37;100.00;98150.90;111490;239;39194;-63
2024/01/03 07:21:27;;;;;;;8.90;7.50;;;;;;;4.38;100.00;98147.20;111536;239;39850;-60
2024/01/03 07:24:03;;;;;;;12.80;8.60;;;;;;;4.37;100.00;98148.52;111482;239;40041;-59
2024/01/03 07:26:40;;;;;;;12.00;8.00;;;;;;;4.38;100.00;98144.70;111464;239;39634;-64
2024/01/03 07:29:18;;;;;;;18.40;11.50;;;;;;;4.37;100.00;98141.65;111481;239;41249;-63
2024/01/03 07:31:54;;;;;;;10.10;8.00;;;;;;;4.43;100.00;98139.93;111530;239;39496;-63
2024/01/03 07:34:31;;;;;;;8.70;7.60;;;;;;;4.46;100.00;98134.78;111490;239;40087;-63
2024/01/03 07:37:05;;;;;;;;;;;;;;;4.47;100.00;98133.49;111524;239;40704;-66
2024/01/03 07:39:39;;;;;;;9.90;7.70;;;;;;;4.47;100.00;98132.97;111440;240;39877;-65
2024/01/03 07:42:18;;;;;;;11.40;7.70;;;;;;;4.49;100.00;98130.95;111525;239;39430;-64
2024/01/03 07:44:53;;;;;;;9.20;7.90;;;;;;;4.55;100.00;98129.93;110916;239;766643;-60
2024/01/03 07:47:30;;;;;;;21.70;13.80;;;;;;;4.57;100.00;98128.58;111479;239;39108;-61
2024/01/03 07:50:07;;;;;;;14.80;10.30;;;;;;;4.57;100.00;98128.61;111500;239;40266;-62
2024/01/03 07:52:44;;;;;;;9.90;7.80;;;;;;;4.55;100.00;98129.20;111441;240;40470;-60
2024/01/03 07:55:18;;;;;;;9.10;7.50;;;;;;;4.57;100.00;98127.38;111525;239;39521;-58
2024/01/03 07:57:56;;;;;;;8.60;6.70;;;;;;;4.63;100.00;98125.85;111474;239;39770;-55
2024/01/03 08:00:33;;;;;;;9.10;7.50;;;;;;;4.62;100.00;98125.11;111459;239;39625;-63
2024/01/03 08:03:11;;;;;;;10.30;7.80;;;;;;;4.65;100.00;98126.59;111501;239;40034;-63
2024/01/03 08:05:52;;;;;;;9.80;7.30;;;;;;;4.70;100.00;98125.54;111445;239;39474;-57
2024/01/03 08:08:32;;;;;;;8.70;7.60;;;;;;;4.69;100.00;98125.80;111446;239;40527;-58
2024/01/03 08:11:08;;;;;;;9.90;7.40;;;;;;;4.70;100.00;98129.95;111505;239;40847;-61
2024/01/03 08:13:43;;;;;;;9.10;7.80;;;;;;;4.72;100.00;98126.34;111481;239;39177;-62
2024/01/03 08:16:22;;;;;;;10.80;8.20;;;;;;;4.77;100.00;98122.62;111495;239;40843;-62
2024/01/03 08:18:58;;;;;;;25.60;15.50;;;;;;;4.82;100.00;98122.95;111483;239;39421;-63
2024/01/03 08:21:37;;;;;;;12.00;8.40;;;;;;;4.84;100.00;98121.21;111460;239;40016;-56
2024/01/03 08:24:13;;;;;;;8.40;7.20;;;;;;;4.85;100.00;98120.71;111494;239;40357;-55
2024/01/03 08:26:49;;;;;;;8.90;7.70;;;;;;;4.87;100.00;98120.80;111552;239;39806;-61
2024/01/03 08:29:30;;;;;;;9.60;7.80;;;;;;;4.89;100.00;98118.82;111551;239;40518;-63
2024/01/03 08:32:07;;;;;;;9.10;7.50;;;;;;;4.90;100.00;98116.05;111550;239;39760;-57
2024/01/03 08:34:46;;;;;;;8.50;7.60;;;;;;;4.94;100.00;98113.83;111519;239;41253;-58
2024/01/03 08:37:24;;;;;;;13.00;8.50;;;;;;;4.97;100.00;98106.36;111528;239;39161;-59
2024/01/03 08:40:05;;;;;;;10.60;7.70;;;;;;;4.98;100.00;98097.52;111502;239;39267;-63
2024/01/03 08:42:43;;;;;;;10.10;7.60;;;;;;;5.02;100.00;98093.51;111445;239;38870;-63
2024/01/03 08:45:25;;;;;;;8.50;7.60;;;;;;;5.04;100.00;98103.22;111450;239;40449;-58
2024/01/03 08:48:06;;;;;;;14.10;9.50;;;;;;;5.05;100.00;98103.58;111472;239;40655;-58
2024/01/03 08:50:43;;;;;;;8.40;7.50;;;;;;;5.02;100.00;98102.11;111517;239;39492;-64
2024/01/03 08:53:19;;;;;;;7.80;7.00;;;;;;;5.01;100.00;98096.11;111477;239;40096;-62
2024/01/03 08:55:56;;;;;;;9.20;8.30;;;;;;;5.06;100.00;98092.55;111469;240;40179;-59
2024/01/03 08:58:37;;;;;;;9.40;7.40;;;;;;;5.10;100.00;98089.66;111490;239;40081;-59
2024/01/03 09:01:20;;;;;;;8.50;7.60;;;;;;;5.14;100.00;98092.61;111498;240;40338;-64
2024/01/03 09:03:54;;;;;;;7.60;6.70;;;;;;;5.17;100.00;98092.44;111481;239;39812;-62
2024/01/03 09:06:35;;;;;;;7.30;6.60;;;;;;;5.19;100.00;98092.71;111528;240;39321;-58
2024/01/03 09:09:17;;;;;;;8.10;7.30;;;;;;;5.18;100.00;98092.89;111489;239;41507;-58
2024/01/03 09:11:55;;;;;;;7.90;7.10;;;;;;;5.19;100.00;98091.80;111491;239;40036;-59
2024/01/03 09:14:32;;;;;;;8.40;7.00;;;;;;;5.22;100.00;98093.15;111532;239;40619;-58
2024/01/03 09:17:06;;;;;;;8.10;6.70;;;;;;;5.18;100.00;98093.79;111564;239;39481;-61
2024/01/03 09:19:42;;;;;;;8.50;7.20;;;;;;;5.21;100.00;98090.38;111407;240;41866;-62
2024/01/03 09:22:24;;;;;;;8.10;7.10;;;;;;;5.20;100.00;98086.34;111492;239;39426;-62
2024/01/03 09:25:02;;;;;;;8.80;6.50;;;;;;;5.20;100.00;98083.08;111539;239;40041;-57
2024/01/03 09:27:40;;;;;;;7.80;6.80;;;;;;;5.22;100.00;98081.17;111478;239;40086;-56
2024/01/03 09:30:18;;;;;;;9.00;7.80;;;;;;;5.24;100.00;98081.73;111500;239;40169;-58
2024/01/03 09:32:55;;;;;;;8.50;7.00;;;;;;;5.29;100.00;98079.83;111468;239;39301;-57
2024/01/03 09:35:31;;;;;;;8.40;6.70;;;;;;;5.31;100.00;98073.31;111476;239;40561;-58
2024/01/03 09:38:12;;;;;;;9.10;7.40;;;;;;;5.33;100.00;98071.33;111448;239;39910;-56
2024/01/03 09:40:52;;;;;;;7.90;7.10;;;;;;;5.35;100.00;98065.79;111462;239;39296;-59
2024/01/03 09:43:31;;;;;;;8.80;7.50;;;;;;;5.37;100.00;98064.79;111468;239;40533;-59
2024/01/03 09:46:09;;;;;;;8.40;7.20;;;;;;;5.41;100.00;98064.27;111488;239;40313;-59
2024/01/03 09:48:49;;;;;;;8.70;7.00;;;;;;;5.44;100.00;98066.67;111499;239;40997;-58
2024/01/03 09:51:29;;;;;;;8.60;7.70;;;;;;;5.45;100.00;98072.77;111460;239;39462;-55
2024/01/03 09:54:09;;;;;;;9.60;8.00;;;;;;;5.43;100.00;98068.73;111361;239;39988;-55
2024/01/03 09:56:47;;;;;;;8.80;7.50;;;;;;;5.45;100.00;98065.63;111484;239;41102;-58
2024/01/03 09:59:29;;;;;;;8.30;7.40;;;;;;;5.50;100.00;98064.65;111483;239;39013;-58
2024/01/03 10:02:06;;;;;;;8.80;7.70;;;;;;;5.55;100.00;98058.78;111518;239;39650;-55
2024/01/03 10:04:52;;;;;;;8.30;7.40;;;;;;;5.55;100.00;98059.14;111538;239;39571;-55
2024/01/03 10:07:42;;;;;;;10.00;8.00;;;;;;;5.61;100.00;98059.04;111518;239;39872;-56
2024/01/03 10:10:31;;;;;;;9.70;8.10;;;;;;;5.64;100.00;98058.45;111556;239;39058;-55
2024/01/03 10:13:24;;;;;;;28.70;17.20;;;;;;;5.68;100.00;98051.95;111476;239;39739;-56
2024/01/03 10:16:11;;;;;;;11.60;8.80;;;;;;;5.72;100.00;98050.84;111511;239;40351;-58
2024/01/03 10:19:07;;;;;;;10.40;9.20;;;;;;;5.70;100.00;98051.85;111505;239;38865;-58
2024/01/03 10:21:49;;;;;;;9.40;8.10;;;;;;;5.68;100.00;98052.60;111473;239;39219;-61
2024/01/03 10:24:31;;;;;;;11.70;8.10;;;;;;;5.64;100.00;98050.31;111494;239;39512;-63
2024/01/03 10:27:13;;;;;;;14.30;12.70;;;;;;;5.68;100.00;98050.75;111470;239;40244;-58
2024/01/03 10:29:50;;;;;;;11.20;9.70;;;;;;;5.73;100.00;98049.48;111473;239;39715;-62
2024/01/03 10:32:31;;;;;;;13.80;12.40;;;;;;;5.78;100.00;98048.05;111475;239;39495;-62
2024/01/03 10:35:22;;;;;;;10.20;8.80;;;;;;;5.76;100.00;98047.82;111419;239;42084;-58
2024/01/03 10:37:59;;;;;;;8.60;7.70;;;;;;;5.76;100.00;98048.31;111495;239;39604;-59
2024/01/03 10:40:36;;;;;;;8.60;7.60;;;;;;;5.77;100.00;98047.60;111488;239;40545;-56
2024/01/03 10:43:12;;;;;;;14.10;12.20;;;;;;;5.75;100.00;98045.44;111486;239;40711;-57
2024/01/03 10:45:50;;;;;;;9.30;8.40;;;;;;;5.79;100.00;98042.19;111482;239;39057;-61
2024/01/03 10:48:26;;;;;;;7.30;6.50;;;;;;;5.84;100.00;98039.15;111502;239;40715;-61
2024/01/03 10:51:11;;;;;;;8.10;7.30;;;;;;;5.80;100.00;98037.40;111575;239;39626;-61
2024/01/03 10:53:51;;;;;;;8.00;7.20;;;;;;;5.82;100.00;98034.41;111521;239;39118;-61
2024/01/03 10:56:28;;;;;;;8.70;7.80;;;;;;;5.74;100.00;98031.60;111505;239;39445;-56
2024/01/03 10:59:06;;;;;;;10.10;8.10;;;;;;;5.79;100.00;98027.02;111503;239;39344;-55
2024/01/03 11:01:56;;;;;;;10.20;9.10;;;;;;;5.81;100.00;98023.75;111490;239;39488;-60
2024/01/03 11:04:46;;;;;;;13.10;11.80;;;;;;;5.86;100.00;98023.66;111506;239;39842;-61
2024/01/03 11:07:36;;;;;;;10.90;9.50;;;;;;;5.87;100.00;98022.09;111503;239;39869;-56
2024/01/03 11:10:47;;;;;;;9.70;8.70;;;;;;;5.88;100.00;98021.88;111469;239;39840;-61
2024/01/03 11:13:35;;;;;;;10.90;8.00;;;;;;;5.91;100.00;98017.69;111470;239;39316;-61
2024/01/03 11:16:39;;;;;;;10.10;9.00;;;;;;;5.92;100.00;98022.14;111473;239;39876;-60
2024/01/03 11:19:30;;;;;;;12.90;11.60;;;;;;;5.93;100.00;98022.42;111491;239;39954;-60
2024/01/03 11:22:06;;;;;;;12.40;9.50;;;;;;;5.97;100.00;98017.43;111416;239;40182;-61
2024/01/03 11:24:59;;;;;;;11.70;9.30;;;;;;;5.97;100.00;98016.54;111501;239;39940;-60
2024/01/03 11:27:35;;;;;;;12.30;9.90;;;;;;;5.99;100.00;98015.23;111420;239;39837;-57
2024/01/03 11:30:45;;;;;;;11.00;9.80;;;;;;;6.01;100.00;98012.42;111523;239;39862;-56
2024/01/03 11:33:32;;;;;;;15.60;12.20;;;;;;;6.07;100.00;98011.67;111449;239;40479;-58
2024/01/03 11:36:08;;;;;;;11.50;10.30;;;;;;;6.14;100.00;98001.10;111520;239;39652;-55
2024/01/03 11:38:49;;;;;;;11.80;10.00;;;;;;;6.18;100.00;97999.90;111561;239;40422;-54
2024/01/03 11:41:30;;;;;;;11.20;10.00;;;;;;;6.21;100.00;97998.48;111520;239;39535;-60
2024/01/03 11:44:20;;;;;;;9.90;8.80;;;;;;;6.22;100.00;97997.73;111519;239;39292;-60
2024/01/03 11:47:04;;;;;;;11.40;9.50;;;;;;;6.26;100.00;97995.38;111506;239;39717;-59
2024/01/03 11:49:39;;;;;;;13.30;10.70;;;;;;;6.30;100.00;97999.21;111509;239;39715;-60
2024/01/03 11:52:16;;;;;;;20.70;16.00;;;;;;;6.37;100.00;97990.73;111517;239;40013;-58
2024/01/03 11:54:53;;;;;;;18.90;13.20;;;;;;;6.45;100.00;97991.70;111468;239;39592;-55
2024/01/03 11:57:30;;;;;;;12.00;9.30;;;;;;;6.44;100.00;97993.96;111388;240;39393;-55
2024/01/03 12:00:13;;;;;;;10.20;9.10;;;;;;;6.40;100.00;97995.09;111473;239;39767;-61
2024/01/03 12:03:02;;;;;;;11.40;9.20;;;;;;;6.40;100.00;97992.73;111478;239;39325;-60
2024/01/03 12:05:45;;;;;;;11.70;9.00;;;;;;;6.43;100.00;97998.34;111479;239;39351;-56
2024/01/03 12:08:24;;;;;;;11.40;9.00;;;;;;;6.43;100.00;97999.98;111469;239;39035;-55
2024/01/03 12:11:02;;;;;;;11.60;9.80;;;;;;;6.43;100.00;98000.48;111439;239;40720;-60
2024/01/03 12:13:39;;;;;;;10.10;9.10;;;;;;;6.45;100.00;98007.20;111464;239;40555;-60
2024/01/03 12:16:16;;;;;;;12.30;10.50;;;;;;;6.47;100.00;98006.60;111503;239;39562;-60
2024/01/03 12:18:54;;;;;;;13.90;10.80;;;;;;;6.52;100.00;98004.44;111467;239;39985;-60